Portada
METAR-TAF:

METAR-TAF

Aeropuertos :

Aeropuerto Internacional de Túnez-Cartago

Túnez, Túnez

latitud: 36-50N, longitud: 010-14E, altitud: 3 m

Observación

El informe se hizo hace 20 minutos, a las 13:30 UTC
Viento 16 kt del noroeste
Temperatura 29°C
Humedad 40%
Presión 1018 hPa
Visibilidad 10 km o más
Escasas nubes a una altura de 2300 ft

METAR: DTTA 131330Z 31016KT 9999 FEW023 29/14 Q1018

Hora: 14:50 (13:50 UTC)

Pronóstico

El informe se hizo hace 2 horas y 50 minutos, a las 11:00 UTC
Pronóstico válido del 13 a las 12 UTC al 14 a las 12 UTC
Viento 16 kt del norte-noroeste
Visibilidad 10 km o más
Escasas nubes a una altura de 2300 ft
Evolucionando progresivamente
del 13 a las 21 UTC al 13 a las 23 UTC
Viento 6 kt del noroeste
Evolucionando progresivamente
del 14 a las 10 UTC al 14 a las 12 UTC
Viento 10 kt del noreste

TAF: DTTA 131100Z 1312/1412 33016KT 9999 FEW023 BECMG 1321/1323 31006KT BECMG 1410/1412 04010KT

Observaciones y pronósticos meteorológicos de más de 4000 aeropuertos (mensajes METAR y TAF).

Los puntos amarillos y rojos representan las estaciones disponibles.

Ponga el ratón en el punto deseado para ver el nombre de la estación.

Haga clic para ver las observaciones y los pronósticos meteorológicos.

Para cambiar el mapa : haga clic en los botones verdes con una cruz de color negro para hacer un zoom, en el botón verde con un guión para alejar o en las flechas verdes para mapas adyacentes.


METAR-TAF: